Terminal Aerodrome Forecast
Issued by NWS Wilmington, NC

Current Version | Previous Version | Graphics & Text | Print | Product List | Glossary Off
Versions: 1 2 3 4 5 6 7 8 9 10 11 12

047
FTUS42 KILM 201723
TAFMYR
TAF
KMYR 201723Z 2018/2118 08008KT P6SM SCT250
     FM211400 10009KT P6SM SCT015=

USA.gov is the U.S. government's official web portal to all federal, state and local government web resources and services.